Terminal Aerodrome Forecast
Issued by NWS

Home | Current Version | Previous Version | Text Only | Print | Product List | Glossary On
Versions: 1 2 3 4 5 6 7 8 9 10 11 12 13 14 15
000
FTUS44 KLIX 261730
TAFMSY
TAF
KMSY 261730Z 2618/2718 33008KT P6SM FEW030 SCT250
      TEMPO 2622/2624 VRB20G35KT 2SM TSRA BKN025CB
     FM270000 VRB03KT P6SM FEW060 SCT200=

USA.gov is the U.S. government's official web portal to all federal, state and local government web resources and services.